This is the latest recevied weather packets stored in our database for station/object KD8UYA. If no packets are shown the sender has not sent any weather packets the latest 10 day(s).
| Time | Temp. | Humidity | Pressure | Rain* | Wind** | Luminosity | Snow |
|---|---|---|---|---|---|---|---|
| 1778161526 | 10° C | 68% | 1011.5 hPa | 0 mm | - | - | - |
| 1778160626 | 9.44° C | 70% | 1011.5 hPa | 0 mm | - | - | - |
| 1778159720 | 8.33° C | 75% | 1011.7 hPa | 0 mm | - | - | - |
| 1778158817 | 8.33° C | 79% | 1011.7 hPa | 0 mm | - | - | - |
| 1778157920 | 7.78° C | 80% | 1011.7 hPa | 0 mm | - | - | - |
| 1778157014 | 7.78° C | 81% | 1011.8 hPa | 0 mm | - | - | - |
| 1778156114 | 7.22° C | 81% | 1011.5 hPa | 0 mm | - | - | - |
| 1778155209 | 7.22° C | 82% | 1011.4 hPa | 0 mm | - | - | - |
| 1778154306 | 6.67° C | 84% | 1011.6 hPa | 0 mm | - | - | - |
| 1778153415 | 6.11° C | 85% | 1011.5 hPa | 0 mm | - | - | - |
| 1778152504 | 5.56° C | 88% | 1011.4 hPa | 0 mm | - | - | - |
| 1778151607 | 5° C | 90% | 1011.4 hPa | 0 mm | - | - | - |
| 1778150703 | 4.44° C | 90% | 1011.2 hPa | 0 mm | - | - | - |
| 1778149802 | 5° C | 87% | 1011.1 hPa | 0 mm | - | - | - |
| 1778148963 | 5.56° C | 87% | 1010.9 hPa | 0 mm | - | - | - |
| 1778148080 | 5.56° C | 86% | 1011.1 hPa | 0 mm | - | - | - |
| 1778147167 | 5.56° C | 85% | 1011 hPa | 0 mm | - | - | - |
| 1778146257 | 5.56° C | 86% | 1011 hPa | 0 mm | - | - | - |
| 1778145383 | 5.56° C | 88% | 1011.1 hPa | 0 mm | - | - | - |
| 1778144456 | 5.56° C | 87% | 1011.1 hPa | 0 mm | - | - | - |
| 1778143565 | 5.56° C | 88% | 1011.2 hPa | 0 mm | - | - | - |
| 1778142653 | 5.56° C | 90% | 1011.2 hPa | 0 mm | - | - | - |
| 1778141758 | 5° C | 91% | 1011.3 hPa | 0 mm | - | - | - |
| 1778140852 | 5° C | 90% | 1011.3 hPa | 0 mm | - | - | - |
| 1778139956 | 5° C | 90% | 1011.2 hPa | 0 mm | - | - | - |
* Rain latest hour (hover to see other rain measurements)
** Current wind speed in m/s (hover to see current wind gust speed)